createdAt,value
2022-10-14T00:01:15.471Z,12.56
2022-10-14T00:03:44.403Z,12.55
2022-10-14T00:06:16.537Z,12.55
2022-10-14T00:08:47.331Z,12.55
2022-10-14T00:11:18.636Z,12.54
2022-10-14T00:13:46.934Z,12.53
2022-10-14T00:16:19.897Z,12.47
2022-10-14T00:18:48.283Z,12.47
2022-10-14T00:21:17.873Z,12.50
2022-10-14T00:23:46.189Z,12.48
2022-10-14T00:26:19.256Z,12.46
2022-10-14T00:28:48.313Z,12.50
2022-10-14T00:31:16.762Z,12.44
2022-10-14T00:33:48.653Z,12.51
2022-10-14T00:36:19.726Z,12.50
2022-10-14T00:38:48.376Z,12.51
2022-10-14T00:41:18.121Z,12.53
2022-10-14T00:44:00.226Z,12.50
2022-10-14T00:46:31.020Z,12.48
2022-10-14T00:49:07.243Z,12.53
2022-10-14T00:51:39.022Z,12.13
2022-10-14T00:54:07.316Z,12.48
2022-10-14T00:56:36.498Z,12.54
2022-10-14T00:59:10.055Z,12.57
2022-10-14T01:01:38.196Z,12.58
2022-10-14T01:04:06.308Z,12.45
2022-10-14T01:06:45.060Z,12.53
2022-10-14T01:09:23.340Z,12.55
2022-10-14T01:12:27.607Z,12.63
2022-10-14T01:15:00.073Z,12.64
2022-10-14T01:17:37.812Z,12.61
2022-10-14T01:20:44.180Z,12.30
2022-10-14T01:24:05.123Z,12.58
2022-10-14T01:26:53.183Z,12.36
2022-10-14T01:29:40.612Z,12.48
2022-10-14T01:32:14.783Z,12.48
2022-10-14T01:34:52.366Z,12.35
2022-10-14T01:37:27.653Z,12.55
2022-10-14T01:40:00.072Z,12.30
2022-10-14T01:42:34.795Z,12.35
2022-10-14T01:45:08.654Z,12.48
2022-10-14T01:47:39.630Z,12.50
2022-10-14T01:50:12.661Z,12.07
2022-10-14T01:52:45.883Z,12.54
2022-10-14T01:55:19.276Z,12.56
2022-10-14T01:57:51.249Z,12.61
2022-10-14T02:00:20.970Z,12.58
2022-10-14T02:02:49.152Z,12.44
2022-10-14T02:05:23.319Z,12.15
2022-10-14T02:07:58.505Z,12.53
2022-10-14T02:10:34.227Z,12.63
2022-10-14T02:13:14.543Z,12.38
2022-10-14T02:15:51.484Z,12.57
2022-10-14T02:18:28.419Z,12.61
2022-10-14T02:21:01.096Z,12.62
2022-10-14T02:23:37.498Z,12.61
2022-10-14T02:26:06.919Z,12.66
2022-10-14T02:28:35.912Z,12.68
2022-10-14T02:31:08.661Z,12.19
2022-10-14T02:33:40.515Z,12.79
2022-10-14T02:36:11.210Z,12.71
2022-10-14T02:38:40.572Z,12.66
2022-10-14T02:41:15.073Z,12.54
2022-10-14T02:43:43.050Z,12.24
2022-10-14T02:46:12.667Z,12.70
2022-10-14T02:48:41.242Z,12.73
2022-10-14T02:51:09.062Z,12.69
2022-10-14T02:53:39.256Z,12.70
2022-10-14T02:56:08.079Z,12.64
2022-10-14T02:58:36.023Z,12.68
2022-10-14T03:01:04.990Z,12.59
2022-10-14T03:03:35.537Z,12.60
2022-10-14T03:06:03.967Z,12.65
2022-10-14T03:08:32.034Z,12.53
2022-10-14T03:11:00.604Z,12.66
2022-10-14T03:13:28.966Z,12.62
2022-10-14T03:15:56.971Z,12.56
2022-10-14T03:18:26.261Z,12.57
2022-10-14T03:21:01.370Z,12.52
2022-10-14T03:23:35.721Z,12.58
2022-10-14T03:26:03.962Z,12.59
2022-10-14T03:28:39.929Z,12.59
2022-10-14T03:31:21.253Z,12.61
2022-10-14T03:34:19.396Z,12.60
2022-10-14T03:36:51.762Z,12.63
2022-10-14T03:39:20.462Z,12.64
2022-10-14T03:41:52.630Z,12.42
2022-10-14T03:44:28.331Z,12.55
2022-10-14T03:47:34.558Z,12.61
2022-10-14T03:50:04.248Z,12.53
2022-10-14T03:52:44.875Z,12.56
2022-10-14T03:55:22.402Z,12.50
2022-10-14T03:57:52.218Z,12.59
2022-10-14T04:00:21.126Z,12.53
2022-10-14T04:02:58.362Z,12.38
2022-10-14T04:05:34.963Z,12.60
2022-10-14T04:08:10.942Z,12.58
2022-10-14T04:10:42.095Z,12.61
2022-10-14T04:13:13.338Z,12.56
2022-10-14T04:15:41.960Z,12.60
2022-10-14T04:18:23.610Z,12.53
2022-10-14T04:20:53.808Z,12.62
2022-10-14T04:23:25.400Z,12.52
2022-10-14T04:25:58.027Z,12.62
2022-10-14T04:28:26.529Z,12.78
2022-10-14T04:31:14.702Z,12.63
2022-10-14T04:33:53.139Z,12.74
2022-10-14T04:36:28.750Z,12.67
2022-10-14T04:39:00.746Z,12.77
2022-10-14T04:41:28.778Z,12.77
2022-10-14T04:43:59.257Z,12.78
2022-10-14T04:46:36.218Z,12.80
2022-10-14T04:49:04.907Z,12.81
2022-10-14T04:51:39.329Z,12.80
2022-10-14T04:54:20.290Z,12.16
2022-10-14T04:56:56.547Z,12.80
2022-10-14T04:59:24.441Z,12.55
2022-10-14T05:01:58.668Z,12.73
2022-10-14T05:04:35.825Z,12.79
2022-10-14T05:07:04.544Z,12.30
2022-10-14T05:09:34.450Z,12.77
2022-10-14T05:12:03.097Z,12.81
2022-10-14T05:14:40.206Z,12.58
2022-10-14T05:17:17.213Z,12.72
2022-10-14T05:19:45.054Z,12.81
2022-10-14T05:22:13.800Z,12.77
2022-10-14T05:24:47.131Z,12.76
2022-10-14T05:27:15.489Z,12.64
2022-10-14T05:29:44.366Z,12.63
2022-10-14T05:32:12.221Z,12.39
2022-10-14T05:34:44.643Z,12.64
2022-10-14T05:37:18.937Z,12.45
2022-10-14T05:39:52.549Z,12.59
2022-10-14T05:42:24.740Z,12.62
2022-10-14T05:44:55.263Z,12.37
2022-10-14T05:47:24.305Z,12.65
2022-10-14T05:49:57.662Z,12.62
2022-10-14T05:52:25.984Z,12.62
2022-10-14T05:54:56.321Z,12.20
2022-10-14T05:57:28.518Z,12.59
2022-10-14T05:59:56.599Z,12.67
2022-10-14T06:02:24.598Z,12.65
2022-10-14T06:04:54.867Z,12.67
2022-10-14T06:07:24.709Z,12.70
2022-10-14T06:09:52.670Z,12.71
2022-10-14T06:12:23.063Z,12.71
2022-10-14T06:14:51.921Z,12.70
2022-10-14T06:17:20.125Z,12.66
2022-10-14T06:19:48.199Z,12.73
2022-10-14T06:22:16.164Z,12.72
2022-10-14T06:24:43.936Z,12.49
2022-10-14T06:27:11.795Z,12.69
2022-10-14T06:29:41.047Z,12.74
2022-10-14T06:32:10.619Z,12.12
2022-10-14T06:34:38.392Z,12.74
2022-10-14T06:37:06.286Z,12.51
2022-10-14T06:39:34.179Z,12.21
2022-10-14T06:42:03.612Z,12.78
2022-10-14T06:44:31.428Z,12.79
2022-10-14T06:47:00.855Z,12.81
2022-10-14T06:49:28.806Z,12.25
2022-10-14T06:51:56.652Z,12.83
2022-10-14T06:54:24.554Z,12.83
2022-10-14T06:56:52.617Z,12.84
2022-10-14T06:59:20.709Z,12.87
2022-10-14T07:01:48.608Z,12.91
2022-10-14T07:04:18.065Z,12.51
2022-10-14T07:06:45.973Z,12.93
2022-10-14T07:09:14.443Z,12.95
2022-10-14T07:11:43.487Z,12.98
2022-10-14T07:14:11.690Z,12.99
2022-10-14T07:16:39.753Z,12.79
2022-10-14T07:19:07.634Z,12.90
2022-10-14T07:21:36.723Z,12.86
2022-10-14T07:24:04.812Z,12.94
2022-10-14T07:26:32.917Z,13.03
2022-10-14T07:29:00.879Z,12.97
2022-10-14T07:31:29.939Z,13.11
2022-10-14T07:33:58.365Z,13.16
2022-10-14T07:36:26.307Z,13.10
2022-10-14T07:38:55.710Z,13.17
2022-10-14T07:41:25.417Z,13.24
2022-10-14T07:43:55.197Z,13.09
2022-10-14T07:46:29.641Z,13.27
2022-10-14T07:48:58.319Z,13.15
2022-10-14T07:51:27.269Z,13.26
2022-10-14T07:53:58.056Z,13.24
2022-10-14T07:56:26.736Z,12.96
2022-10-14T07:58:55.467Z,13.40
2022-10-14T08:01:24.786Z,13.32
2022-10-14T08:03:53.315Z,13.37
2022-10-14T08:06:21.381Z,13.44
2022-10-14T08:08:49.440Z,13.40
2022-10-14T08:11:21.807Z,13.51
2022-10-14T08:13:50.697Z,13.23
2022-10-14T08:16:21.231Z,13.73
2022-10-14T08:18:49.705Z,13.84
2022-10-14T08:21:26.049Z,14.05
2022-10-14T08:23:54.912Z,14.03
2022-10-14T08:26:29.246Z,14.30
2022-10-14T08:28:57.474Z,14.30
2022-10-14T08:31:25.788Z,14.27
2022-10-14T08:33:53.688Z,14.23
2022-10-14T08:36:22.535Z,14.25
2022-10-14T08:38:53.047Z,13.89
2022-10-14T08:41:43.305Z,14.24
2022-10-14T08:44:18.466Z,14.21
2022-10-14T08:46:52.264Z,14.46
2022-10-14T08:49:27.694Z,12.84
2022-10-14T08:52:10.854Z,12.95
2022-10-14T08:54:43.592Z,14.51
2022-10-14T08:57:21.938Z,13.88
2022-10-14T08:59:51.720Z,12.82
2022-10-14T09:02:34.907Z,14.97
2022-10-14T09:05:05.602Z,14.36
2022-10-14T09:07:35.995Z,15.30
2022-10-14T09:10:07.803Z,15.54
2022-10-14T09:12:38.268Z,15.61
2022-10-14T09:15:14.632Z,15.54
2022-10-14T09:17:46.942Z,15.12
2022-10-14T09:20:19.516Z,15.30
2022-10-14T09:22:57.885Z,15.32
2022-10-14T09:25:25.838Z,15.11
2022-10-14T09:27:55.087Z,14.87
2022-10-14T09:30:22.901Z,14.55
2022-10-14T09:32:53.389Z,14.90
2022-10-14T09:35:25.963Z,14.25
2022-10-14T09:37:54.271Z,15.11
2022-10-14T09:40:29.817Z,14.82
2022-10-14T09:43:03.606Z,14.81
2022-10-14T09:45:57.645Z,14.89
2022-10-14T09:48:34.366Z,15.06
2022-10-14T09:51:06.460Z,14.72
2022-10-14T09:53:39.192Z,15.09
2022-10-14T09:56:10.363Z,14.52
2022-10-14T09:58:47.391Z,14.88
2022-10-14T10:01:18.652Z,14.87
2022-10-14T10:03:48.538Z,15.13
2022-10-14T10:06:20.274Z,14.59
2022-10-14T10:08:57.257Z,14.76
2022-10-14T10:11:29.523Z,14.98
2022-10-14T10:13:58.856Z,15.08
2022-10-14T10:16:31.262Z,15.25
2022-10-14T10:19:03.597Z,15.08
2022-10-14T10:21:32.047Z,15.19
2022-10-14T10:24:01.426Z,15.29
2022-10-14T10:26:32.852Z,15.13
2022-10-14T10:29:04.948Z,15.10
2022-10-14T10:31:48.507Z,15.11
2022-10-14T10:34:45.239Z,15.21
2022-10-14T10:37:25.495Z,15.28
2022-10-14T10:40:09.242Z,15.25
2022-10-14T10:42:51.418Z,15.37
2022-10-14T10:45:36.374Z,15.58
2022-10-14T10:48:10.974Z,15.77
2022-10-14T10:50:48.312Z,15.87
2022-10-14T10:53:41.146Z,15.83
2022-10-14T10:56:22.629Z,16.16
2022-10-14T10:59:07.619Z,16.17
2022-10-14T11:01:52.124Z,16.05
2022-10-14T11:04:34.753Z,13.92
2022-10-14T11:07:31.453Z,15.85
2022-10-14T11:10:31.440Z,14.30
2022-10-14T11:13:07.803Z,14.32
2022-10-14T11:15:52.118Z,15.74
2022-10-14T11:18:31.506Z,15.76
2022-10-14T11:21:19.553Z,15.70
2022-10-14T11:24:03.629Z,15.86
2022-10-14T11:26:47.596Z,15.60
2022-10-14T11:29:31.783Z,16.26
2022-10-14T11:32:10.198Z,16.12
2022-10-14T11:35:07.041Z,16.81
2022-10-14T11:37:48.964Z,16.71
2022-10-14T11:40:24.885Z,16.69
2022-10-14T11:43:06.744Z,16.53
2022-10-14T11:45:50.376Z,16.70
2022-10-14T11:48:28.641Z,16.59
2022-10-14T11:51:03.986Z,16.29
2022-10-14T11:53:47.832Z,16.75
2022-10-14T11:56:29.974Z,16.51
2022-10-14T11:59:41.628Z,16.82
2022-10-14T12:02:44.743Z,16.63
2022-10-14T12:05:22.376Z,16.35
2022-10-14T12:08:07.988Z,16.64
2022-10-14T12:10:43.708Z,16.50
2022-10-14T12:13:22.848Z,15.97
2022-10-14T12:15:54.446Z,16.08
2022-10-14T12:18:24.355Z,16.00
2022-10-14T12:21:00.181Z,16.32
2022-10-14T12:23:38.691Z,16.29
2022-10-14T12:26:19.395Z,16.46
2022-10-14T12:28:48.967Z,16.86
2022-10-14T12:31:33.773Z,16.77
2022-10-14T12:34:27.546Z,17.23
2022-10-14T12:36:55.492Z,17.19
2022-10-14T12:39:32.434Z,16.97
2022-10-14T12:42:03.536Z,17.17
2022-10-14T12:44:42.888Z,17.44
2022-10-14T12:47:21.243Z,17.12
2022-10-14T12:49:52.024Z,16.80
2022-10-14T12:52:27.462Z,16.89
2022-10-14T12:54:57.563Z,16.95
2022-10-14T12:57:30.663Z,16.98
2022-10-14T13:00:02.805Z,16.90
2022-10-14T13:02:34.178Z,16.83
2022-10-14T13:05:07.703Z,15.93
2022-10-14T13:07:46.332Z,16.77
2022-10-14T13:10:52.435Z,16.78
2022-10-14T13:13:59.024Z,16.69
2022-10-14T13:16:55.812Z,16.68
2022-10-14T13:19:44.683Z,16.48
2022-10-14T13:22:40.733Z,16.64
2022-10-14T13:25:18.314Z,16.22
2022-10-14T13:28:02.251Z,16.65
2022-10-14T13:30:39.383Z,16.70
2022-10-14T13:33:17.383Z,16.58
2022-10-14T13:35:53.931Z,16.77
2022-10-14T13:38:24.792Z,16.80
2022-10-14T13:40:55.276Z,17.09
2022-10-14T13:43:27.998Z,17.16
2022-10-14T13:46:07.565Z,16.58
2022-10-14T13:48:39.095Z,17.07
2022-10-14T13:51:31.946Z,17.03
2022-10-14T13:54:16.633Z,16.81
2022-10-14T13:56:44.659Z,16.78
2022-10-14T13:59:43.168Z,16.76
2022-10-14T14:02:15.865Z,16.69
2022-10-14T14:04:51.600Z,16.65
2022-10-14T14:08:08.523Z,16.63
2022-10-14T14:10:12.057Z,16.57
2022-10-14T14:12:43.531Z,16.57
2022-10-14T14:15:20.861Z,16.60
2022-10-14T14:17:50.544Z,16.46
2022-10-14T14:20:21.651Z,16.49
2022-10-14T14:22:51.434Z,16.54
2022-10-14T14:25:35.336Z,16.48
2022-10-14T14:28:15.056Z,16.33
2022-10-14T14:30:54.656Z,16.19
2022-10-14T14:33:30.657Z,16.33
2022-10-14T14:36:00.762Z,16.26
2022-10-14T14:38:33.425Z,16.19
2022-10-14T14:41:03.147Z,16.36
2022-10-14T14:43:36.525Z,16.18
2022-10-14T14:46:07.247Z,16.30
2022-10-14T14:48:38.400Z,16.10
2022-10-14T14:51:14.253Z,16.23
2022-10-14T14:53:42.721Z,16.24
2022-10-14T14:56:19.079Z,16.23
2022-10-14T14:58:52.262Z,16.17
2022-10-14T15:01:23.228Z,15.85
2022-10-14T15:04:12.152Z,16.13
2022-10-14T15:06:50.916Z,15.98
2022-10-14T15:09:25.157Z,16.05
2022-10-14T15:11:55.661Z,16.07
2022-10-14T15:14:33.615Z,15.84
2022-10-14T15:17:05.624Z,15.84
2022-10-14T15:19:38.930Z,15.91
2022-10-14T15:22:22.820Z,15.81
2022-10-14T15:25:08.499Z,15.85
2022-10-14T15:27:47.620Z,15.96
2022-10-14T15:30:34.551Z,15.64
2022-10-14T15:33:05.618Z,15.43
2022-10-14T15:35:36.874Z,15.79
2022-10-14T15:38:15.934Z,15.80
2022-10-14T15:40:44.705Z,15.89
2022-10-14T15:43:17.609Z,15.59
2022-10-14T15:46:12.622Z,15.58
2022-10-14T15:48:41.273Z,15.78
2022-10-14T15:51:16.424Z,15.06
2022-10-14T15:53:44.399Z,15.77
2022-10-14T15:56:12.590Z,15.62
2022-10-14T15:58:40.659Z,15.40
2022-10-14T16:01:09.044Z,15.49
2022-10-14T16:03:40.837Z,15.57
2022-10-14T16:06:12.591Z,15.59
2022-10-14T16:08:42.768Z,15.56
2022-10-14T16:11:20.708Z,15.46
2022-10-14T16:13:48.627Z,15.46
2022-10-14T16:16:20.276Z,14.88
2022-10-14T16:18:48.094Z,15.36
2022-10-14T16:21:18.371Z,15.30
2022-10-14T16:23:46.158Z,15.36
2022-10-14T16:26:14.431Z,15.25
2022-10-14T16:28:42.402Z,15.22
2022-10-14T16:31:13.552Z,15.16
2022-10-14T16:33:44.772Z,15.14
2022-10-14T16:36:15.757Z,14.74
2022-10-14T16:38:45.420Z,14.77
2022-10-14T16:41:13.601Z,15.00
2022-10-14T16:43:41.506Z,15.05
2022-10-14T16:46:11.936Z,15.03
2022-10-14T16:48:42.740Z,14.90
2022-10-14T16:51:10.732Z,14.63
2022-10-14T16:53:49.015Z,14.98
2022-10-14T16:56:37.488Z,14.94
2022-10-14T16:59:07.671Z,14.50
2022-10-14T17:01:35.605Z,14.93
2022-10-14T17:04:04.737Z,14.47
2022-10-14T17:06:32.915Z,14.42
2022-10-14T17:09:01.115Z,14.94
2022-10-14T17:11:31.076Z,14.51
2022-10-14T17:14:00.660Z,14.88
2022-10-14T17:16:29.818Z,14.91
2022-10-14T17:18:58.845Z,14.16
2022-10-14T17:21:29.326Z,14.71
2022-10-14T17:24:01.404Z,14.66
2022-10-14T17:26:32.257Z,14.69
2022-10-14T17:29:00.756Z,14.73
2022-10-14T17:31:29.424Z,14.08
2022-10-14T17:33:57.482Z,14.65
2022-10-14T17:36:28.036Z,14.70
2022-10-14T17:38:57.520Z,14.72
2022-10-14T17:41:26.917Z,14.64
2022-10-14T17:43:58.281Z,14.65
2022-10-14T17:46:29.175Z,14.66
2022-10-14T17:48:59.612Z,14.65
2022-10-14T17:51:29.134Z,14.71
2022-10-14T17:53:58.559Z,14.19
2022-10-14T17:56:27.545Z,14.57
2022-10-14T17:58:58.676Z,14.51
2022-10-14T18:01:37.349Z,14.01
2022-10-14T18:04:11.917Z,14.61
2022-10-14T18:06:39.768Z,14.47
2022-10-14T18:09:09.806Z,13.87
2022-10-14T18:12:07.166Z,13.90
2022-10-14T18:14:31.268Z,14.62
2022-10-14T18:16:59.845Z,14.61
2022-10-14T18:19:28.116Z,14.15
2022-10-14T18:21:55.931Z,14.68
2022-10-14T18:24:23.797Z,14.68
2022-10-14T18:26:52.068Z,14.68
2022-10-14T18:29:20.075Z,14.59
2022-10-14T18:31:49.967Z,14.57
2022-10-14T18:34:18.064Z,14.51
2022-10-14T18:36:48.068Z,14.58
2022-10-14T18:39:16.147Z,14.51
2022-10-14T18:41:44.213Z,14.72
2022-10-14T18:44:12.300Z,14.08
2022-10-14T18:46:41.735Z,14.60
2022-10-14T18:49:12.424Z,14.61
2022-10-14T18:51:41.352Z,14.62
2022-10-14T18:54:13.350Z,14.35
2022-10-14T18:56:41.367Z,14.65
2022-10-14T18:59:11.929Z,14.45
2022-10-14T19:01:40.543Z,14.63
2022-10-14T19:04:13.124Z,14.67
2022-10-14T19:06:41.487Z,14.65
2022-10-14T19:09:12.567Z,14.33
2022-10-14T19:11:41.290Z,14.64
2022-10-14T19:14:09.833Z,14.56
2022-10-14T19:16:39.716Z,14.67
2022-10-14T19:19:11.623Z,14.57
2022-10-14T19:21:41.790Z,14.63
2022-10-14T19:24:11.297Z,14.64
2022-10-14T19:26:41.407Z,14.72
2022-10-14T19:29:11.700Z,14.65
2022-10-14T19:31:40.847Z,14.55
2022-10-14T19:34:11.158Z,14.67
2022-10-14T19:36:39.743Z,14.64
2022-10-14T19:39:12.322Z,14.57
2022-10-14T19:41:43.205Z,13.64
2022-10-14T19:44:11.987Z,14.64
2022-10-14T19:46:40.505Z,14.73
2022-10-14T19:49:08.531Z,14.47
2022-10-14T19:51:36.471Z,14.62
2022-10-14T19:54:04.469Z,14.70
2022-10-14T19:56:33.874Z,14.74
2022-10-14T19:59:01.846Z,14.72
2022-10-14T20:01:31.242Z,14.65
2022-10-14T20:04:01.157Z,14.67
2022-10-14T20:06:33.742Z,14.62
2022-10-14T20:09:01.684Z,14.68
2022-10-14T20:11:29.993Z,14.64
2022-10-14T20:13:59.215Z,14.63
2022-10-14T20:16:27.490Z,14.34
2022-10-14T20:18:55.950Z,14.42
2022-10-14T20:21:23.922Z,14.39
2022-10-14T20:23:51.729Z,14.44
2022-10-14T20:26:21.960Z,14.43
2022-10-14T20:28:49.853Z,14.43
2022-10-14T20:31:21.008Z,14.37
2022-10-14T20:33:49.459Z,14.13
2022-10-14T20:36:19.743Z,14.27
2022-10-14T20:38:48.270Z,14.23
2022-10-14T20:41:18.919Z,13.95
2022-10-14T20:43:47.376Z,14.31
2022-10-14T20:46:15.622Z,14.33
2022-10-14T20:48:45.568Z,14.11
2022-10-14T20:51:15.947Z,14.39
2022-10-14T20:53:43.953Z,14.20
2022-10-14T20:56:13.366Z,14.28
2022-10-14T20:58:41.515Z,14.24
2022-10-14T21:01:11.778Z,14.36
2022-10-14T21:03:39.779Z,14.32
2022-10-14T21:06:10.670Z,14.05
2022-10-14T21:08:39.615Z,14.25
2022-10-14T21:11:13.683Z,14.37
2022-10-14T21:13:46.248Z,14.37
2022-10-14T21:16:16.087Z,14.26
2022-10-14T21:18:46.837Z,14.39
2022-10-14T21:21:17.083Z,13.95
2022-10-14T21:23:45.006Z,14.38
2022-10-14T21:26:12.928Z,14.27
2022-10-14T21:28:41.218Z,14.32
2022-10-14T21:31:10.930Z,14.12
2022-10-14T21:33:38.945Z,13.58
2022-10-14T21:36:09.003Z,14.29
2022-10-14T21:38:38.626Z,14.11
2022-10-14T21:41:07.709Z,14.12
2022-10-14T21:43:37.629Z,14.34
2022-10-14T21:46:07.424Z,14.34
2022-10-14T21:48:35.349Z,14.33
2022-10-14T21:51:04.031Z,14.33
2022-10-14T21:53:32.063Z,14.28
2022-10-14T21:56:01.811Z,14.17
2022-10-14T21:58:30.302Z,13.80
2022-10-14T22:01:03.356Z,14.29
2022-10-14T22:03:31.518Z,14.02
2022-10-14T22:06:00.084Z,14.24
2022-10-14T22:08:30.852Z,14.08
2022-10-14T22:10:58.806Z,14.21
2022-10-14T22:13:29.037Z,14.22
2022-10-14T22:15:57.053Z,14.22
2022-10-14T22:18:25.313Z,14.19
2022-10-14T22:21:03.758Z,13.53
2022-10-14T22:23:32.202Z,14.21
2022-10-14T22:26:01.064Z,14.21
2022-10-14T22:28:31.005Z,13.95
2022-10-14T22:31:05.296Z,14.27
2022-10-14T22:33:35.329Z,14.25
2022-10-14T22:36:08.834Z,14.04
2022-10-14T22:38:37.605Z,14.22
2022-10-14T22:41:06.937Z,14.09
2022-10-14T22:43:36.868Z,14.19
2022-10-14T22:46:07.599Z,14.10
2022-10-14T22:48:36.255Z,14.08
2022-10-14T22:51:05.162Z,14.08
2022-10-14T22:53:33.899Z,14.01
2022-10-14T22:56:02.045Z,14.07
2022-10-14T22:58:30.411Z,14.17
2022-10-14T23:01:06.533Z,13.94
2022-10-14T23:03:35.447Z,14.07
2022-10-14T23:06:04.316Z,14.07
2022-10-14T23:08:32.640Z,13.98
2022-10-14T23:11:01.202Z,14.08
2022-10-14T23:13:29.515Z,14.17
2022-10-14T23:15:59.593Z,13.99
2022-10-14T23:18:28.113Z,14.19
2022-10-14T23:20:56.337Z,14.20
2022-10-14T23:23:24.215Z,14.20
2022-10-14T23:25:52.310Z,14.20
2022-10-14T23:28:20.195Z,14.05
2022-10-14T23:30:48.385Z,13.92
2022-10-14T23:33:17.620Z,14.21
2022-10-14T23:35:45.637Z,14.21
2022-10-14T23:38:13.580Z,14.18
2022-10-14T23:40:41.530Z,14.20
2022-10-14T23:43:09.506Z,14.11
2022-10-14T23:45:37.503Z,14.13
2022-10-14T23:48:05.754Z,14.08
2022-10-14T23:50:34.932Z,13.73
2022-10-14T23:53:02.820Z,13.99
2022-10-14T23:55:30.797Z,13.98
2022-10-14T23:57:58.612Z,13.94
